Monday, August 20, 2018, 1:16 AM EDT
Back to Local

KBVY, Beverly Municipal Airport

Location: Danvers, MA, United States Lat: 42.583
Local Time: 1:16 AM EDT ( 5:16 GMT) Lon: -70.917
Time Zone: US/Eastern Elev: 108 ft

Show me the last for .
Show Decoded

2018-08-20 01:06 METAR KBVY 200506Z AUTO 03006KT 10SM SCT009 BKN014 OVC021 19/18 A3011 RMK AO2
                 T01890183 =
2018-08-20 00:53 METAR KBVY 200453Z AUTO 02006KT 10SM SCT011 OVC022 19/18 A3011 RMK AO2 RAE12
                 SLP192 P0001 T01890183 402170189 =
2018-08-20 00:19 METAR KBVY 200419Z AUTO 02004KT 10SM FEW008 BKN023 OVC030 19/18 A3011 RMK AO2
                 RAE12 P0001 T01890183 =
2018-08-20 00:10 METAR KBVY 200410Z AUTO 02003KT 6SM -RA BR BKN009 OVC021 19/18 A3011 RMK AO2
                 P0001 T01890183 =
2018-08-20 00:02 METAR KBVY 200402Z AUTO 04006KT 2 1/2SM -RA BR BKN009 OVC019 19/18 A3010 RMK AO2
                 VIS 1 1/2V5 P0001 T01890178 =
2018-08-19 23:53 METAR KBVY 200353Z AUTO 04007KT 5SM -RA BR OVC010 19/17 A3011 RMK AO2 RAB52 CIG
                 007V011 SLP189 P0000 T01940172 =
2018-08-19 23:16 METAR KBVY 200316Z AUTO 05009KT 10SM OVC014 19/17 A3010 RMK AO2 T01940167 =
2018-08-19 23:01 METAR KBVY 200301Z AUTO 04008KT 10SM BKN016 BKN032 OVC039 19/17 A3010 RMK AO2
                 T01940167 =
2018-08-19 22:53 METAR KBVY 200253Z AUTO 03007KT 10SM SCT017 BKN032 OVC039 19/17 A3010 RMK AO2
                 SLP187 T01940167 50002 =
2018-08-19 21:53 METAR KBVY 200153Z AUTO 04008KT 10SM OVC043 20/16 A3011 RMK AO2 SLP190 T02000161
                 =
2018-08-19 20:53 METAR KBVY 200053Z 05008KT 10SM BKN048 OVC055 20/16 A3011 RMK AO2 SLP189
                 T02000161 =
2018-08-19 19:53 METAR KBVY 192353Z 02004KT 10SM CLR 19/16 A3009 RMK AO2 SLP185 T01890156 10211
                 20189 53009 =
2018-08-19 18:53 METAR KBVY 192253Z 06005KT 10SM FEW023 20/16 A3008 RMK AO2 SLP179 T02000156 =
2018-08-19 18:07 METAR KBVY 192207Z VRB06KT 10SM SCT023 21/16 A3007 RMK AO2 T02060156 =
2018-08-19 17:53 METAR KBVY 192153Z VRB05KT 10SM BKN023 21/16 A3007 RMK AO2 SLP177 T02060161 =
2018-08-19 17:23 METAR KBVY 192123Z 06010KT 10SM BKN023 21/16 A3007 RMK AO2 T02060156 =
2018-08-19 16:53 METAR KBVY 192053Z 05011G18KT 10SM SCT022 21/16 A3006 RMK AO2 SLP175 T02060161
                 51005 =
2018-08-19 16:36 METAR KBVY 192036Z 05013G18KT 10SM SCT019 21/16 A3006 RMK AO2 T02060161 =
2018-08-19 15:53 METAR KBVY 191953Z 05009G16KT 10SM BKN022 21/16 A3006 RMK AO2 SLP173 T02110161 =
2018-08-19 15:46 METAR KBVY 191946Z 05011KT 10SM SCT022 BKN027 21/16 A3006 RMK AO2 T02060156 =
2018-08-19 15:33 METAR KBVY 191933Z 06009G18KT 10SM SCT022 21/16 A3006 RMK AO2 T02060156 =
2018-08-19 14:53 METAR KBVY 191853Z 03008KT 10SM OVC018 20/16 A3006 RMK AO2 SLP174 T02000156 =
2018-08-19 13:53 METAR KBVY 191753Z 03013G17KT 10SM BKN019 OVC024 21/16 A3005 RMK AO2 SLP170
                 T02060156 10217 20200 52001 =
2018-08-19 12:53 METAR KBVY 191653Z 04013G18KT 10SM BKN021 21/16 A3004 RMK AO2 SLP168 T02060156 =
2018-08-19 12:26 METAR KBVY 191626Z 05013G20KT 10SM SCT021 BKN026 21/16 A3005 RMK AO2 T02060156 =
2018-08-19 12:07 METAR KBVY 191607Z 03013KT 10SM SCT022 21/16 A3005 RMK AO2 T02110156 =
2018-08-19 11:53 METAR KBVY 191553Z 04010G19KT 10SM BKN020 BKN025 21/16 A3005 RMK AO2 SLP170
                 T02060156 =
2018-08-19 10:53 METAR KBVY 191453Z 04014G20KT 10SM BKN021 21/16 A3005 RMK AO2 SLP169 T02060156
                 51018 =
2018-08-19 09:53 METAR KBVY 191353Z 04013G20KT 10SM BKN021 20/16 A3003 RMK AO2 SLP164 T02000161 =
2018-08-19 08:53 METAR KBVY 191253Z 05011G17KT 10SM BKN019 20/16 A3001 RMK AO2 SLP157 T02000161 =
2018-08-19 08:39 METAR KBVY 191239Z 03013G21KT 10SM BKN019 20/16 A3001 RMK AO2 T02000161 =
2018-08-19 07:53 METAR KBVY 191153Z 04009KT 10SM FEW016 FEW022 20/17 A2999 RMK AO2 SLP150 70019
                 T02000167 10200 20189 53018 =
2018-08-19 06:53 METAR KBVY 191053Z 01008KT 10SM FEW013 19/17 A2997 RMK AO2 SLP144 T01890172 =
2018-08-19 05:53 METAR KBVY 190953Z AUTO 01005KT 10SM OVC080 19/17 A2995 RMK AO2 SLP136 T01890172
                 =
2018-08-19 04:53 METAR KBVY 190853Z AUTO 02005KT 10SM FEW023 OVC080 19/17 A2994 RMK AO2 SLP132
                 T01940172 53006 =
2018-08-19 04:28 METAR KBVY 190828Z AUTO 02006KT 10SM FEW016 SCT029 OVC080 19/17 A2993 RMK AO2
                 T01890172 =
2018-08-19 04:13 METAR KBVY 190813Z AUTO 36004KT 10SM FEW015 BKN029 OVC080 19/17 A2993 RMK AO2
                 T01890167 =
2018-08-19 03:53 METAR KBVY 190753Z AUTO 05004KT 10SM FEW023 OVC080 19/17 A2993 RMK AO2 SLP129
                 T01890167 =
2018-08-19 02:53 METAR KBVY 190653Z AUTO 04006KT 10SM FEW021 OVC065 19/17 A2992 RMK AO2 SLP127
                 T01940172 =
2018-08-19 02:20 METAR KBVY 190620Z AUTO 03004KT 10SM SCT022 SCT029 OVC060 19/18 A2992 RMK AO2
                 T01940178 =
2018-08-19 01:53 METAR KBVY 190553Z AUTO 03006KT 10SM FEW023 BKN028 OVC055 19/18 A2992 RMK AO2
                 SLP126 60000 T01940178 10211 20189 53008 =

Support USWX by starting your Amazon purchase here.